createdAt,value
2022-07-28T00:00:35.197Z,99.90
2022-07-28T00:03:42.024Z,99.90
2022-07-28T00:06:47.830Z,99.90
2022-07-28T00:09:58.241Z,99.90
2022-07-28T00:13:06.829Z,99.90
2022-07-28T00:16:12.987Z,99.90
2022-07-28T00:19:20.325Z,99.90
2022-07-28T00:22:25.854Z,99.90
2022-07-28T00:25:31.030Z,99.90
2022-07-28T00:28:36.788Z,99.60
2022-07-28T00:31:42.137Z,99.60
2022-07-28T00:34:49.129Z,99.10
2022-07-28T00:37:59.208Z,99.00
2022-07-28T00:41:14.329Z,98.40
2022-07-28T00:44:19.578Z,98.20
2022-07-28T00:47:24.922Z,98.20
2022-07-28T00:50:31.759Z,98.30
2022-07-28T00:53:37.313Z,98.00
2022-07-28T00:56:42.699Z,97.40
2022-07-28T00:59:47.929Z,97.60
2022-07-28T01:02:53.317Z,98.10
2022-07-28T01:06:11.281Z,97.70
2022-07-28T01:09:39.715Z,97.60
2022-07-28T01:12:52.480Z,97.70
2022-07-28T01:16:03.127Z,97.40
2022-07-28T01:19:18.713Z,97.40
2022-07-28T01:22:29.345Z,97.20
2022-07-28T01:25:48.178Z,97.00
2022-07-28T01:29:08.253Z,97.10
2022-07-28T01:32:20.813Z,96.90
2022-07-28T01:35:30.417Z,97.20
2022-07-28T01:38:37.257Z,97.20
2022-07-28T01:41:44.478Z,96.70
2022-07-28T01:44:51.998Z,97.40
2022-07-28T01:48:01.607Z,97.40
2022-07-28T01:51:08.853Z,97.20
2022-07-28T01:54:14.610Z,97.10
2022-07-28T01:57:21.492Z,97.20
2022-07-28T02:00:28.032Z,97.20
2022-07-28T02:03:35.843Z,97.40
2022-07-28T02:06:43.768Z,97.20
2022-07-28T02:09:49.760Z,97.50
2022-07-28T02:12:56.685Z,97.30
2022-07-28T02:16:04.023Z,97.50
2022-07-28T02:19:10.876Z,97.30
2022-07-28T02:22:19.037Z,97.50
2022-07-28T02:25:24.361Z,97.40
2022-07-28T02:28:30.023Z,97.40
2022-07-28T02:31:42.217Z,97.40
2022-07-28T02:34:51.077Z,97.40
2022-07-28T02:38:03.133Z,97.40
2022-07-28T02:41:13.725Z,97.40
2022-07-28T02:44:22.925Z,97.50
2022-07-28T02:47:30.265Z,97.40
2022-07-28T02:50:36.828Z,97.50
2022-07-28T02:53:42.136Z,97.50
2022-07-28T02:56:53.123Z,97.50
2022-07-28T02:59:59.185Z,97.60
2022-07-28T03:03:04.854Z,97.70
2022-07-28T03:06:12.765Z,97.70
2022-07-28T03:09:18.132Z,97.60
2022-07-28T03:12:23.459Z,97.90
2022-07-28T03:15:28.867Z,97.70
2022-07-28T03:18:34.665Z,97.70
2022-07-28T03:21:41.985Z,98.00
2022-07-28T03:24:51.768Z,98.00
2022-07-28T03:27:58.276Z,97.80
2022-07-28T03:31:08.669Z,97.80
2022-07-28T03:34:14.486Z,97.90
2022-07-28T03:37:27.556Z,97.80
2022-07-28T03:40:33.849Z,98.00
2022-07-28T03:43:39.766Z,98.10
2022-07-28T03:46:45.977Z,97.90
2022-07-28T03:49:51.426Z,97.90
2022-07-28T03:52:59.544Z,97.90
2022-07-28T03:56:05.733Z,98.00
2022-07-28T03:59:11.996Z,98.00
2022-07-28T04:02:17.196Z,98.00
2022-07-28T04:05:22.715Z,98.40
2022-07-28T04:08:29.633Z,98.10
2022-07-28T04:11:34.835Z,98.10
2022-07-28T04:14:40.145Z,97.70
2022-07-28T04:17:46.014Z,98.00
2022-07-28T04:20:51.197Z,98.30
2022-07-28T04:24:01.843Z,97.80
2022-07-28T04:27:08.013Z,97.80
2022-07-28T04:30:17.594Z,97.90
2022-07-28T04:33:22.969Z,98.00
2022-07-28T04:36:28.106Z,98.10
2022-07-28T04:39:35.316Z,98.20
2022-07-28T04:42:41.208Z,97.80
2022-07-28T04:45:53.545Z,98.50
2022-07-28T04:48:59.666Z,97.80
2022-07-28T04:52:05.795Z,97.60
2022-07-28T04:55:12.295Z,97.60
2022-07-28T04:58:36.692Z,98.20
2022-07-28T05:01:43.423Z,97.70
2022-07-28T05:04:48.755Z,97.90
2022-07-28T05:07:54.597Z,97.80
2022-07-28T05:11:01.247Z,97.80
2022-07-28T05:14:06.726Z,98.10
2022-07-28T05:17:17.705Z,98.60
2022-07-28T05:20:22.961Z,97.90
2022-07-28T05:23:28.752Z,97.80
2022-07-28T05:26:35.310Z,97.90
2022-07-28T05:29:46.765Z,98.10
2022-07-28T05:32:53.983Z,98.60
2022-07-28T05:35:59.457Z,98.20
2022-07-28T05:39:05.031Z,98.30
2022-07-28T05:42:12.780Z,98.40
2022-07-28T05:45:18.094Z,98.20
2022-07-28T05:48:23.808Z,98.50
2022-07-28T05:51:28.976Z,98.30
2022-07-28T05:54:33.866Z,98.00
2022-07-28T05:57:41.438Z,97.90
2022-07-28T06:00:46.738Z,98.10
2022-07-28T06:04:09.969Z,97.70
2022-07-28T06:07:15.626Z,97.80
2022-07-28T06:10:24.890Z,97.90
2022-07-28T06:13:31.834Z,97.70
2022-07-28T06:16:37.210Z,97.90
2022-07-28T06:19:42.446Z,97.50
2022-07-28T06:22:49.675Z,97.50
2022-07-28T06:25:55.932Z,97.80
2022-07-28T06:29:02.395Z,97.50
2022-07-28T06:32:07.943Z,97.10
2022-07-28T06:35:14.885Z,96.90
2022-07-28T06:38:20.810Z,97.50
2022-07-28T06:41:27.159Z,96.60
2022-07-28T06:44:57.439Z,96.60
2022-07-28T06:47:59.045Z,96.60
2022-07-28T06:51:04.325Z,96.70
2022-07-28T06:54:11.534Z,97.70
2022-07-28T06:57:16.987Z,96.20
2022-07-28T07:00:23.724Z,96.20
2022-07-28T07:03:29.093Z,96.20
2022-07-28T07:06:34.172Z,96.50
2022-07-28T07:09:40.095Z,96.50
2022-07-28T07:12:45.235Z,96.30
2022-07-28T07:15:51.964Z,96.60
2022-07-28T07:18:57.294Z,96.40
2022-07-28T07:22:02.796Z,96.20
2022-07-28T07:25:11.710Z,97.20
2022-07-28T07:28:17.139Z,96.70
2022-07-28T07:31:30.037Z,96.60
2022-07-28T07:34:35.637Z,96.40
2022-07-28T07:37:40.937Z,96.30
2022-07-28T07:40:46.305Z,95.90
2022-07-28T07:43:51.513Z,96.20
2022-07-28T07:46:58.055Z,95.20
2022-07-28T07:50:04.609Z,94.70
2022-07-28T07:53:12.639Z,94.60
2022-07-28T07:56:18.494Z,94.50
2022-07-28T07:59:23.650Z,95.00
2022-07-28T08:02:30.400Z,95.30
2022-07-28T08:05:36.473Z,94.50
2022-07-28T08:08:46.436Z,94.40
2022-07-28T08:11:53.636Z,93.70
2022-07-28T08:14:58.806Z,94.20
2022-07-28T08:18:06.010Z,93.70
2022-07-28T08:21:14.999Z,93.40
2022-07-28T08:24:33.013Z,93.00
2022-07-28T08:27:39.286Z,93.20
2022-07-28T08:30:44.808Z,93.40
2022-07-28T08:33:53.709Z,92.70
2022-07-28T08:36:59.919Z,92.60
2022-07-28T08:40:06.866Z,92.20
2022-07-28T08:43:24.891Z,92.90
2022-07-28T08:46:36.155Z,92.80
2022-07-28T08:49:44.185Z,92.70
2022-07-28T08:52:52.189Z,92.50
2022-07-28T08:56:03.536Z,92.70
2022-07-28T08:59:09.311Z,92.20
2022-07-28T09:02:15.333Z,92.70
2022-07-28T09:05:23.812Z,92.40
2022-07-28T09:08:29.042Z,92.40
2022-07-28T09:11:34.134Z,92.40
2022-07-28T09:14:39.357Z,92.60
2022-07-28T09:17:44.985Z,91.80
2022-07-28T09:20:51.856Z,92.50
2022-07-28T09:23:57.090Z,91.80
2022-07-28T09:27:06.787Z,91.90
2022-07-28T09:30:14.025Z,92.40
2022-07-28T09:33:43.047Z,91.80
2022-07-28T09:36:48.938Z,92.40
2022-07-28T09:39:59.057Z,91.70
2022-07-28T09:43:05.764Z,92.20
2022-07-28T09:46:13.360Z,92.60
2022-07-28T09:49:18.981Z,91.70
2022-07-28T09:52:33.285Z,91.50
2022-07-28T09:55:56.589Z,91.90
2022-07-28T09:59:03.577Z,91.10
2022-07-28T10:02:09.517Z,91.90
2022-07-28T10:05:16.875Z,91.10
2022-07-28T10:08:44.295Z,92.10
2022-07-28T10:11:49.858Z,92.30
2022-07-28T10:14:56.993Z,91.80
2022-07-28T10:18:02.196Z,91.50
2022-07-28T10:21:10.916Z,92.00
2022-07-28T10:24:23.596Z,92.40
2022-07-28T10:27:29.900Z,90.70
2022-07-28T10:30:41.356Z,90.50
2022-07-28T10:33:51.786Z,90.90
2022-07-28T10:36:57.685Z,90.90
2022-07-28T10:40:10.303Z,90.10
2022-07-28T10:43:16.789Z,90.00
2022-07-28T10:46:22.420Z,90.30
2022-07-28T10:49:32.563Z,90.10
2022-07-28T10:52:49.913Z,90.10
2022-07-28T10:56:04.943Z,89.80
2022-07-28T10:59:31.621Z,89.40
2022-07-28T11:02:52.496Z,89.00
2022-07-28T11:05:58.689Z,88.70
2022-07-28T11:09:25.423Z,87.20
2022-07-28T11:12:52.421Z,87.10
2022-07-28T11:16:00.602Z,88.10
2022-07-28T11:19:36.039Z,88.80
2022-07-28T11:22:34.219Z,88.50
2022-07-28T11:25:40.020Z,87.50
2022-07-28T11:29:20.978Z,88.00
2022-07-28T11:32:26.510Z,87.80
2022-07-28T11:35:48.512Z,89.50
2022-07-28T11:39:24.353Z,88.80
2022-07-28T11:42:32.426Z,86.20
2022-07-28T11:45:44.403Z,86.20
2022-07-28T11:49:26.012Z,86.50
2022-07-28T11:52:31.206Z,86.00
2022-07-28T11:55:49.154Z,86.50
2022-07-28T11:59:04.349Z,87.90
2022-07-28T12:02:11.444Z,86.90
2022-07-28T12:05:17.984Z,86.10
2022-07-28T12:08:24.033Z,85.60
2022-07-28T12:11:33.968Z,85.30
2022-07-28T12:14:43.505Z,85.10
2022-07-28T12:17:51.389Z,85.20
2022-07-28T12:21:00.535Z,86.60
2022-07-28T12:24:11.387Z,87.70
2022-07-28T12:27:17.047Z,84.50
2022-07-28T12:30:27.949Z,84.40
2022-07-28T12:33:35.444Z,83.50
2022-07-28T12:36:40.890Z,83.80
2022-07-28T12:39:52.712Z,83.70
2022-07-28T12:42:57.813Z,83.30
2022-07-28T12:46:03.606Z,83.40
2022-07-28T12:49:22.781Z,83.20
2022-07-28T12:52:28.083Z,82.40
2022-07-28T12:55:33.233Z,82.10
2022-07-28T12:58:38.505Z,82.00
2022-07-28T13:01:51.946Z,82.50
2022-07-28T13:04:58.484Z,82.90
2022-07-28T13:08:06.361Z,82.70
2022-07-28T13:11:42.671Z,86.00
2022-07-28T13:14:41.030Z,81.50
2022-07-28T13:17:55.053Z,80.90
2022-07-28T13:21:01.517Z,80.80
2022-07-28T13:24:07.823Z,81.50
2022-07-28T13:27:13.778Z,80.80
2022-07-28T13:30:19.621Z,80.60
2022-07-28T13:33:26.823Z,80.60
2022-07-28T13:36:35.176Z,80.90
2022-07-28T13:39:40.822Z,81.00
2022-07-28T13:42:52.717Z,78.50
2022-07-28T13:46:00.180Z,78.20
2022-07-28T13:49:05.586Z,75.10
2022-07-28T13:52:33.286Z,74.40
2022-07-28T13:55:40.618Z,75.50
2022-07-28T13:58:45.727Z,75.50
2022-07-28T14:01:50.858Z,75.20
2022-07-28T14:04:56.480Z,75.60
2022-07-28T14:08:03.684Z,76.00
2022-07-28T14:11:09.564Z,76.60
2022-07-28T14:14:16.987Z,75.80
2022-07-28T14:17:43.254Z,77.10
2022-07-28T14:20:50.356Z,77.80
2022-07-28T14:23:57.002Z,76.40
2022-07-28T14:27:02.338Z,75.70
2022-07-28T14:30:09.719Z,76.90
2022-07-28T14:33:17.169Z,76.10
2022-07-28T14:36:22.310Z,73.60
2022-07-28T14:39:28.990Z,74.40
2022-07-28T14:42:34.385Z,73.70
2022-07-28T14:46:00.540Z,74.30
2022-07-28T14:49:04.932Z,74.10
2022-07-28T14:52:11.969Z,77.10
2022-07-28T14:55:19.015Z,75.10
2022-07-28T14:58:24.272Z,74.10
2022-07-28T15:01:29.583Z,75.30
2022-07-28T15:04:41.665Z,71.10
2022-07-28T15:07:49.446Z,72.10
2022-07-28T15:10:57.786Z,71.10
2022-07-28T15:14:03.043Z,73.60
2022-07-28T15:17:08.297Z,73.90
2022-07-28T15:20:14.234Z,75.40
2022-07-28T15:23:19.817Z,73.80
2022-07-28T15:26:27.270Z,69.60
2022-07-28T15:29:35.656Z,70.60
2022-07-28T15:32:55.737Z,70.60
2022-07-28T15:36:02.292Z,70.80
2022-07-28T15:39:09.295Z,73.10
2022-07-28T15:42:15.995Z,75.20
2022-07-28T15:45:21.514Z,75.50
2022-07-28T15:48:27.227Z,76.20
2022-07-28T15:51:33.653Z,71.90
2022-07-28T15:54:38.841Z,73.60
2022-07-28T15:57:46.534Z,73.00
2022-07-28T16:00:52.376Z,71.10
2022-07-28T16:03:58.822Z,72.10
2022-07-28T16:07:23.455Z,70.90
2022-07-28T16:10:29.394Z,71.50
2022-07-28T16:13:37.606Z,72.30
2022-07-28T16:16:42.982Z,73.60
2022-07-28T16:19:50.245Z,72.30
2022-07-28T16:22:56.560Z,73.60
2022-07-28T16:26:01.741Z,74.10
2022-07-28T16:29:08.736Z,72.40
2022-07-28T16:32:13.977Z,74.50
2022-07-28T16:35:19.984Z,72.50
2022-07-28T16:38:25.778Z,76.10
2022-07-28T16:41:47.014Z,73.40
2022-07-28T16:44:54.882Z,77.60
2022-07-28T16:48:03.877Z,74.90
2022-07-28T16:51:11.574Z,74.00
2022-07-28T16:54:17.461Z,75.80
2022-07-28T16:57:23.628Z,73.90
2022-07-28T17:00:31.343Z,74.00
2022-07-28T17:03:37.142Z,75.00
2022-07-28T17:06:42.413Z,74.10
2022-07-28T17:09:47.549Z,73.40
2022-07-28T17:12:52.875Z,85.60
2022-07-28T17:15:59.910Z,89.60
2022-07-28T17:19:05.639Z,90.80
2022-07-28T17:22:11.424Z,91.20
2022-07-28T17:28:42.057Z,92.10
2022-07-28T17:31:49.881Z,92.40
2022-07-28T17:34:55.623Z,92.50
2022-07-28T17:38:01.038Z,92.50
2022-07-28T17:41:09.213Z,92.90
2022-07-28T17:44:15.285Z,93.40
2022-07-28T17:47:24.462Z,93.40
2022-07-28T17:50:42.429Z,93.70
2022-07-28T17:53:48.852Z,93.80
2022-07-28T17:56:56.791Z,93.90
2022-07-28T18:00:01.965Z,94.10
2022-07-28T18:03:18.969Z,94.30
2022-07-28T18:06:24.579Z,94.50
2022-07-28T18:09:30.023Z,95.20
2022-07-28T18:12:35.263Z,94.90
2022-07-28T18:15:42.638Z,94.90
2022-07-28T18:18:49.352Z,95.20
2022-07-28T18:21:54.667Z,95.00
2022-07-28T18:25:00.855Z,95.20
2022-07-28T18:28:08.959Z,95.60
2022-07-28T18:31:14.494Z,95.30
2022-07-28T18:34:23.510Z,95.70
2022-07-28T18:37:31.009Z,95.80
2022-07-28T18:40:36.828Z,95.80
2022-07-28T18:43:42.045Z,96.10
2022-07-28T18:46:47.633Z,96.20
2022-07-28T18:49:54.102Z,96.70
2022-07-28T18:52:59.430Z,97.00
2022-07-28T18:56:05.761Z,97.00
2022-07-28T18:59:10.980Z,97.00
2022-07-28T19:02:17.642Z,96.90
2022-07-28T19:05:24.898Z,96.80
2022-07-28T19:08:30.413Z,97.10
2022-07-28T19:11:35.544Z,97.30
2022-07-28T19:14:40.983Z,97.50
2022-07-28T19:17:46.473Z,97.30
2022-07-28T19:21:15.167Z,97.30
2022-07-28T19:24:20.910Z,97.30
2022-07-28T19:27:26.244Z,97.50
2022-07-28T19:30:36.310Z,98.10
2022-07-28T19:33:43.809Z,98.30
2022-07-28T19:36:53.002Z,98.30
2022-07-28T19:39:58.187Z,98.20
2022-07-28T19:43:03.461Z,98.30
2022-07-28T19:46:08.832Z,98.10
2022-07-28T19:49:16.998Z,98.10
2022-07-28T19:52:24.029Z,98.50
2022-07-28T19:55:32.362Z,99.30
2022-07-28T19:58:37.850Z,98.20
2022-07-28T20:01:46.873Z,98.20
2022-07-28T20:04:56.035Z,98.20
2022-07-28T20:08:02.958Z,98.00
2022-07-28T20:11:08.782Z,98.00
2022-07-28T20:14:14.097Z,98.00
2022-07-28T20:17:37.052Z,98.00
2022-07-28T20:20:42.982Z,98.50
2022-07-28T20:23:49.545Z,99.10
2022-07-28T20:26:54.660Z,98.50
2022-07-28T20:29:59.905Z,98.40
2022-07-28T20:33:06.204Z,98.40
2022-07-28T20:36:13.104Z,98.40
2022-07-28T20:39:43.271Z,98.50
2022-07-28T20:42:47.547Z,98.90
2022-07-28T20:45:56.464Z,99.00
2022-07-28T20:49:02.174Z,98.80
2022-07-28T20:52:07.868Z,99.30
2022-07-28T20:55:14.501Z,99.50
2022-07-28T20:58:19.863Z,99.10
2022-07-28T21:01:26.251Z,99.10
2022-07-28T21:04:32.118Z,99.00
2022-07-28T21:08:05.433Z,99.10
2022-07-28T21:11:05.370Z,99.30
2022-07-28T21:14:11.872Z,99.60
2022-07-28T21:17:16.996Z,99.60
2022-07-28T21:20:22.175Z,99.70
2022-07-28T21:23:27.538Z,99.80
2022-07-28T21:26:34.040Z,99.70
2022-07-28T21:29:38.417Z,99.60
2022-07-28T21:32:43.522Z,99.60
2022-07-28T21:35:49.438Z,99.90
2022-07-28T21:38:54.792Z,99.80
2022-07-28T21:42:04.701Z,99.90
2022-07-28T21:45:13.242Z,99.90
2022-07-28T21:48:20.157Z,99.90
2022-07-28T21:51:26.468Z,99.90
2022-07-28T21:54:31.735Z,99.90
2022-07-28T21:57:38.433Z,99.90
2022-07-28T22:00:44.389Z,99.90
2022-07-28T22:03:50.082Z,99.90
2022-07-28T22:06:55.140Z,99.90
2022-07-28T22:10:00.625Z,99.90
2022-07-28T22:13:07.374Z,99.90
2022-07-28T22:16:12.849Z,99.90
2022-07-28T22:19:18.175Z,99.90
2022-07-28T22:22:23.351Z,99.90
2022-07-28T22:25:28.888Z,99.90
2022-07-28T22:28:35.697Z,99.90
2022-07-28T22:31:42.264Z,99.90
2022-07-28T22:34:47.573Z,99.90
2022-07-28T22:37:53.000Z,99.90
2022-07-28T22:40:58.676Z,99.90
2022-07-28T22:44:05.279Z,99.90
2022-07-28T22:47:11.567Z,99.90
2022-07-28T22:50:17.105Z,99.90
2022-07-28T22:53:22.485Z,99.90
2022-07-28T22:56:28.039Z,99.90
2022-07-28T22:59:51.006Z,99.90
2022-07-28T23:02:56.897Z,99.90
2022-07-28T23:06:03.031Z,99.90
2022-07-28T23:09:08.432Z,99.90
2022-07-28T23:12:15.180Z,99.90
2022-07-28T23:15:22.144Z,99.90
2022-07-28T23:18:27.576Z,99.90
2022-07-28T23:21:32.717Z,99.90
2022-07-28T23:24:38.008Z,99.90
2022-07-28T23:27:43.209Z,99.90
2022-07-28T23:30:52.092Z,99.90
2022-07-28T23:33:57.740Z,99.90
2022-07-28T23:37:03.378Z,99.90
2022-07-28T23:40:10.609Z,99.90
2022-07-28T23:43:16.981Z,99.90
2022-07-28T23:46:23.818Z,99.90
2022-07-28T23:49:29.137Z,99.90
2022-07-28T23:52:34.519Z,99.90
2022-07-28T23:55:39.748Z,99.90
2022-07-28T23:58:45.046Z,99.90
